sensor_id;sensor_type;location;lat;lon;timestamp;pressure;altitude;pressure_sealevel;temperature;humidity
13414;BME280;6778;48.136;11.386;2023-02-19T00:00:17;95792.84;;;12.21;63.07
13414;BME280;6778;48.136;11.386;2023-02-19T00:02:48;95786.78;;;12.21;63.13
13414;BME280;6778;48.136;11.386;2023-02-19T00:05:21;95791.16;;;12.27;63.02
13414;BME280;6778;48.136;11.386;2023-02-19T00:07:51;95783.34;;;12.20;63.17
13414;BME280;6778;48.136;11.386;2023-02-19T00:10:21;95770.09;;;12.34;62.70
13414;BME280;6778;48.136;11.386;2023-02-19T00:12:51;95784.41;;;12.13;63.15
13414;BME280;6778;48.136;11.386;2023-02-19T00:15:21;95774.91;;;12.12;63.25
13414;BME280;6778;48.136;11.386;2023-02-19T00:17:52;95775.06;;;12.42;62.57
13414;BME280;6778;48.136;11.386;2023-02-19T00:20:24;95776.56;;;12.31;62.89
13414;BME280;6778;48.136;11.386;2023-02-19T00:22:54;95777.44;;;12.25;63.01
13414;BME280;6778;48.136;11.386;2023-02-19T00:25:24;95765.31;;;12.24;62.74
13414;BME280;6778;48.136;11.386;2023-02-19T00:27:54;95774.50;;;12.40;62.61
13414;BME280;6778;48.136;11.386;2023-02-19T00:30:24;95775.19;;;12.28;62.79
13414;BME280;6778;48.136;11.386;2023-02-19T00:32:54;95766.50;;;12.28;62.89
13414;BME280;6778;48.136;11.386;2023-02-19T00:35:27;95778.13;;;12.39;62.57
13414;BME280;6778;48.136;11.386;2023-02-19T00:37:58;95764.19;;;12.38;62.40
13414;BME280;6778;48.136;11.386;2023-02-19T00:40:28;95763.38;;;12.38;62.72
13414;BME280;6778;48.136;11.386;2023-02-19T00:42:58;95767.09;;;12.30;62.79
13414;BME280;6778;48.136;11.386;2023-02-19T00:45:28;95766.06;;;12.31;62.76
13414;BME280;6778;48.136;11.386;2023-02-19T00:48:01;95769.06;;;12.35;62.70
13414;BME280;6778;48.136;11.386;2023-02-19T00:50:33;95763.16;;;12.39;62.46
13414;BME280;6778;48.136;11.386;2023-02-19T00:53:04;95755.72;;;12.36;62.58
13414;BME280;6778;48.136;11.386;2023-02-19T00:55:33;95754.53;;;12.32;62.71
13414;BME280;6778;48.136;11.386;2023-02-19T00:58:04;95752.28;;;12.36;62.56
13414;BME280;6778;48.136;11.386;2023-02-19T01:00:34;95763.53;;;12.43;62.14
13414;BME280;6778;48.136;11.386;2023-02-19T01:03:04;95754.06;;;12.42;62.37
13414;BME280;6778;48.136;11.386;2023-02-19T01:05:36;95758.56;;;12.35;62.77
13414;BME280;6778;48.136;11.386;2023-02-19T01:08:07;95751.59;;;12.22;63.39
13414;BME280;6778;48.136;11.386;2023-02-19T01:10:37;95746.94;;;12.24;63.29
13414;BME280;6778;48.136;11.386;2023-02-19T01:13:07;95744.69;;;12.27;63.16
13414;BME280;6778;48.136;11.386;2023-02-19T01:15:38;95738.22;;;12.48;62.67
13414;BME280;6778;48.136;11.386;2023-02-19T01:18:08;95736.88;;;12.39;62.51
13414;BME280;6778;48.136;11.386;2023-02-19T01:20:42;95747.38;;;12.39;62.64
13414;BME280;6778;48.136;11.386;2023-02-19T01:23:13;95744.19;;;12.37;62.71
13414;BME280;6778;48.136;11.386;2023-02-19T01:25:43;95735.56;;;12.30;62.94
13414;BME280;6778;48.136;11.386;2023-02-19T01:28:13;95727.34;;;12.26;63.10
13414;BME280;6778;48.136;11.386;2023-02-19T01:30:44;95729.59;;;12.41;62.73
13414;BME280;6778;48.136;11.386;2023-02-19T01:33:14;95730.25;;;12.37;62.83
13414;BME280;6778;48.136;11.386;2023-02-19T01:35:47;95733.75;;;12.30;63.16
13414;BME280;6778;48.136;11.386;2023-02-19T01:38:17;95730.59;;;12.22;63.73
13414;BME280;6778;48.136;11.386;2023-02-19T01:40:53;95730.16;;;12.25;63.66
13414;BME280;6778;48.136;11.386;2023-02-19T01:43:24;95723.19;;;12.12;64.27
13414;BME280;6778;48.136;11.386;2023-02-19T01:45:55;95728.84;;;12.16;64.16
13414;BME280;6778;48.136;11.386;2023-02-19T01:48:28;95715.88;;;12.21;63.81
13414;BME280;6778;48.136;11.386;2023-02-19T01:51:07;95730.06;;;12.13;64.07
13414;BME280;6778;48.136;11.386;2023-02-19T01:53:43;95714.91;;;12.15;64.05
13414;BME280;6778;48.136;11.386;2023-02-19T01:56:17;95718.31;;;12.16;64.04
13414;BME280;6778;48.136;11.386;2023-02-19T01:58:49;95715.63;;;12.22;63.74
13414;BME280;6778;48.136;11.386;2023-02-19T02:01:20;95705.19;;;12.16;63.90
13414;BME280;6778;48.136;11.386;2023-02-19T02:03:50;95715.13;;;11.89;65.29
13414;BME280;6778;48.136;11.386;2023-02-19T02:06:26;95714.50;;;12.12;65.29
13414;BME280;6778;48.136;11.386;2023-02-19T02:09:00;95718.97;;;12.11;65.24
13414;BME280;6778;48.136;11.386;2023-02-19T02:11:46;95719.63;;;12.07;65.61
13414;BME280;6778;48.136;11.386;2023-02-19T02:14:18;95713.94;;;12.10;65.95
13414;BME280;6778;48.136;11.386;2023-02-19T02:16:57;95711.47;;;11.90;67.26
13414;BME280;6778;48.136;11.386;2023-02-19T02:19:43;95717.06;;;12.00;67.54
13414;BME280;6778;48.136;11.386;2023-02-19T02:22:26;95694.97;;;11.83;68.82
13414;BME280;6778;48.136;11.386;2023-02-19T02:28:11;95702.69;;;11.71;70.81
13414;BME280;6778;48.136;11.386;2023-02-19T02:30:53;95700.84;;;11.53;71.55
13414;BME280;6778;48.136;11.386;2023-02-19T02:33:32;95699.72;;;11.67;71.13
13414;BME280;6778;48.136;11.386;2023-02-19T02:36:09;95695.09;;;11.63;71.42
13414;BME280;6778;48.136;11.386;2023-02-19T02:38:45;95694.56;;;11.54;72.40
13414;BME280;6778;48.136;11.386;2023-02-19T02:41:19;95687.66;;;11.60;71.76
13414;BME280;6778;48.136;11.386;2023-02-19T02:43:49;95687.63;;;11.66;71.64
13414;BME280;6778;48.136;11.386;2023-02-19T02:46:27;95685.72;;;11.48;73.38
13414;BME280;6778;48.136;11.386;2023-02-19T02:49:04;95671.84;;;11.41;73.95
13414;BME280;6778;48.136;11.386;2023-02-19T02:51:39;95668.78;;;11.44;73.87
13414;BME280;6778;48.136;11.386;2023-02-19T02:54:19;95678.56;;;11.31;75.06
13414;BME280;6778;48.136;11.386;2023-02-19T02:57:08;95661.19;;;11.36;74.85
13414;BME280;6778;48.136;11.386;2023-02-19T02:59:55;95666.50;;;11.23;76.28
13414;BME280;6778;48.136;11.386;2023-02-19T03:02:30;95647.63;;;11.14;76.76
13414;BME280;6778;48.136;11.386;2023-02-19T03:05:04;95645.78;;;11.15;76.76
13414;BME280;6778;48.136;11.386;2023-02-19T03:07:53;95644.97;;;11.21;75.62
13414;BME280;6778;48.136;11.386;2023-02-19T03:10:32;95652.25;;;11.19;76.66
13414;BME280;6778;48.136;11.386;2023-02-19T03:13:09;95651.91;;;11.02;77.72
13414;BME280;6778;48.136;11.386;2023-02-19T03:15:58;95649.47;;;11.07;77.62
13414;BME280;6778;48.136;11.386;2023-02-19T03:18:49;95651.84;;;11.15;76.62
13414;BME280;6778;48.136;11.386;2023-02-19T03:21:40;95652.53;;;11.04;77.50
13414;BME280;6778;48.136;11.386;2023-02-19T03:24:11;95650.75;;;10.98;77.85
13414;BME280;6778;48.136;11.386;2023-02-19T03:26:56;95661.13;;;10.80;79.31
13414;BME280;6778;48.136;11.386;2023-02-19T03:29:36;95657.84;;;10.91;78.21
13414;BME280;6778;48.136;11.386;2023-02-19T03:32:13;95655.66;;;10.81;79.02
13414;BME280;6778;48.136;11.386;2023-02-19T03:34:53;95640.88;;;10.93;78.80
13414;BME280;6778;48.136;11.386;2023-02-19T03:37:30;95644.94;;;10.89;79.54
13414;BME280;6778;48.136;11.386;2023-02-19T03:40:02;95644.19;;;10.76;79.87
13414;BME280;6778;48.136;11.386;2023-02-19T03:42:41;95646.81;;;10.76;80.22
13414;BME280;6778;48.136;11.386;2023-02-19T03:45:28;95642.22;;;10.71;80.43
13414;BME280;6778;48.136;11.386;2023-02-19T03:48:19;95653.09;;;10.68;80.64
13414;BME280;6778;48.136;11.386;2023-02-19T03:51:03;95637.38;;;10.68;80.18
13414;BME280;6778;48.136;11.386;2023-02-19T03:53:46;95650.09;;;10.71;80.18
13414;BME280;6778;48.136;11.386;2023-02-19T03:56:27;95651.94;;;10.64;80.26
13414;BME280;6778;48.136;11.386;2023-02-19T03:59:08;95642.19;;;10.78;80.33
13414;BME280;6778;48.136;11.386;2023-02-19T04:01:43;95649.66;;;10.74;81.14
13414;BME280;6778;48.136;11.386;2023-02-19T04:04:19;95637.69;;;10.47;81.50
13414;BME280;6778;48.136;11.386;2023-02-19T04:06:57;95621.69;;;10.61;80.82
13414;BME280;6778;48.136;11.386;2023-02-19T04:09:35;95630.22;;;10.50;81.04
13414;BME280;6778;48.136;11.386;2023-02-19T04:12:13;95626.66;;;10.38;81.70
13414;BME280;6778;48.136;11.386;2023-02-19T04:14:51;95607.66;;;10.43;82.11
13414;BME280;6778;48.136;11.386;2023-02-19T04:17:30;95617.97;;;10.44;81.77
13414;BME280;6778;48.136;11.386;2023-02-19T04:20:07;95604.22;;;10.49;81.25
13414;BME280;6778;48.136;11.386;2023-02-19T04:22:42;95612.31;;;10.41;81.78
13414;BME280;6778;48.136;11.386;2023-02-19T04:25:13;95616.53;;;10.42;81.24
13414;BME280;6778;48.136;11.386;2023-02-19T04:27:44;95615.38;;;10.37;80.93
13414;BME280;6778;48.136;11.386;2023-02-19T04:30:15;95614.59;;;10.30;81.32
13414;BME280;6778;48.136;11.386;2023-02-19T04:32:45;95623.63;;;10.34;81.41
13414;BME280;6778;48.136;11.386;2023-02-19T04:35:15;95611.53;;;10.40;81.54
13414;BME280;6778;48.136;11.386;2023-02-19T04:37:48;95628.84;;;10.34;80.87
13414;BME280;6778;48.136;11.386;2023-02-19T04:40:18;95630.47;;;10.29;81.16
13414;BME280;6778;48.136;11.386;2023-02-19T04:42:48;95622.78;;;10.41;80.94
13414;BME280;6778;48.136;11.386;2023-02-19T04:45:18;95649.41;;;10.37;81.02
13414;BME280;6778;48.136;11.386;2023-02-19T04:47:49;95645.56;;;10.40;80.46
13414;BME280;6778;48.136;11.386;2023-02-19T04:50:19;95644.56;;;10.34;80.63
13414;BME280;6778;48.136;11.386;2023-02-19T04:52:51;95653.81;;;10.44;80.01
13414;BME280;6778;48.136;11.386;2023-02-19T04:55:21;95665.50;;;10.34;80.24
13414;BME280;6778;48.136;11.386;2023-02-19T04:57:52;95646.00;;;10.37;79.98
13414;BME280;6778;48.136;11.386;2023-02-19T05:00:22;95664.69;;;10.41;80.24
13414;BME280;6778;48.136;11.386;2023-02-19T05:02:52;95653.03;;;10.36;80.25
13414;BME280;6778;48.136;11.386;2023-02-19T05:05:21;95657.63;;;10.41;80.03
13414;BME280;6778;48.136;11.386;2023-02-19T05:07:54;95662.91;;;10.34;80.49
13414;BME280;6778;48.136;11.386;2023-02-19T05:10:24;95663.34;;;10.25;81.06
13414;BME280;6778;48.136;11.386;2023-02-19T05:12:54;95653.06;;;10.17;81.23
13414;BME280;6778;48.136;11.386;2023-02-19T05:15:24;95652.03;;;10.31;80.63
13414;BME280;6778;48.136;11.386;2023-02-19T05:17:54;95649.00;;;10.21;80.39
13414;BME280;6778;48.136;11.386;2023-02-19T05:20:25;95646.19;;;10.16;81.26
13414;BME280;6778;48.136;11.386;2023-02-19T05:22:57;95661.09;;;10.35;80.01
13414;BME280;6778;48.136;11.386;2023-02-19T05:25:27;95652.03;;;10.31;79.75
13414;BME280;6778;48.136;11.386;2023-02-19T05:27:57;95645.38;;;10.22;80.09
13414;BME280;6778;48.136;11.386;2023-02-19T05:30:43;95653.88;;;10.24;79.96
13414;BME280;6778;48.136;11.386;2023-02-19T05:33:15;95664.72;;;10.21;80.28
13414;BME280;6778;48.136;11.386;2023-02-19T05:35:47;95662.53;;;10.31;79.50
13414;BME280;6778;48.136;11.386;2023-02-19T05:38:21;95666.31;;;10.35;79.75
13414;BME280;6778;48.136;11.386;2023-02-19T05:40:51;95663.31;;;10.38;79.47
13414;BME280;6778;48.136;11.386;2023-02-19T05:43:21;95676.78;;;10.35;79.28
13414;BME280;6778;48.136;11.386;2023-02-19T05:45:51;95674.78;;;10.37;79.34
13414;BME280;6778;48.136;11.386;2023-02-19T05:48:23;95676.41;;;10.31;78.84
13414;BME280;6778;48.136;11.386;2023-02-19T05:50:53;95682.66;;;10.37;79.20
13414;BME280;6778;48.136;11.386;2023-02-19T05:53:25;95682.81;;;10.42;78.25
13414;BME280;6778;48.136;11.386;2023-02-19T05:55:55;95686.69;;;10.33;78.92
13414;BME280;6778;48.136;11.386;2023-02-19T05:58:26;95690.50;;;10.17;79.75
13414;BME280;6778;48.136;11.386;2023-02-19T06:00:56;95701.59;;;10.32;79.06
13414;BME280;6778;48.136;11.386;2023-02-19T06:03:26;95690.91;;;10.34;78.85
13414;BME280;6778;48.136;11.386;2023-02-19T06:05:56;95698.38;;;10.30;78.65
13414;BME280;6778;48.136;11.386;2023-02-19T06:08:29;95691.69;;;10.34;78.80
13414;BME280;6778;48.136;11.386;2023-02-19T06:10:59;95705.00;;;10.39;78.53
13414;BME280;6778;48.136;11.386;2023-02-19T06:13:29;95692.69;;;10.40;78.32
13414;BME280;6778;48.136;11.386;2023-02-19T06:16:02;95693.50;;;10.21;79.42
13414;BME280;6778;48.136;11.386;2023-02-19T06:18:32;95697.16;;;10.33;78.73
13414;BME280;6778;48.136;11.386;2023-02-19T06:21:04;95699.97;;;10.38;78.29
13414;BME280;6778;48.136;11.386;2023-02-19T06:23:38;95713.28;;;10.36;78.51
13414;BME280;6778;48.136;11.386;2023-02-19T06:26:10;95720.28;;;10.43;78.17
13414;BME280;6778;48.136;11.386;2023-02-19T06:28:43;95715.25;;;10.34;78.15
13414;BME280;6778;48.136;11.386;2023-02-19T06:31:13;95726.38;;;10.36;78.32
13414;BME280;6778;48.136;11.386;2023-02-19T06:33:44;95718.53;;;10.30;78.28
13414;BME280;6778;48.136;11.386;2023-02-19T06:36:19;95731.41;;;10.31;78.28
13414;BME280;6778;48.136;11.386;2023-02-19T06:38:52;95729.56;;;10.38;77.79
13414;BME280;6778;48.136;11.386;2023-02-19T06:41:24;95741.22;;;10.43;78.07
13414;BME280;6778;48.136;11.386;2023-02-19T06:43:55;95741.25;;;10.36;78.26
13414;BME280;6778;48.136;11.386;2023-02-19T06:46:26;95739.44;;;10.43;78.10
13414;BME280;6778;48.136;11.386;2023-02-19T06:48:56;95745.69;;;10.35;78.58
13414;BME280;6778;48.136;11.386;2023-02-19T06:51:26;95741.22;;;10.43;78.26
13414;BME280;6778;48.136;11.386;2023-02-19T06:54:01;95752.31;;;10.51;78.06
13414;BME280;6778;48.136;11.386;2023-02-19T06:56:33;95747.06;;;10.58;77.33
13414;BME280;6778;48.136;11.386;2023-02-19T06:59:08;95756.09;;;10.62;77.35
13414;BME280;6778;48.136;11.386;2023-02-19T07:01:39;95753.44;;;10.75;76.93
13414;BME280;6778;48.136;11.386;2023-02-19T07:04:10;95767.81;;;10.59;77.07
13414;BME280;6778;48.136;11.386;2023-02-19T07:06:40;95776.44;;;10.73;76.94
13414;BME280;6778;48.136;11.386;2023-02-19T07:09:13;95771.97;;;10.80;76.04
13414;BME280;6778;48.136;11.386;2023-02-19T07:11:42;95783.47;;;10.79;76.81
13414;BME280;6778;48.136;11.386;2023-02-19T07:14:14;95770.97;;;10.81;76.89
13414;BME280;6778;48.136;11.386;2023-02-19T07:16:46;95789.91;;;10.77;77.14
13414;BME280;6778;48.136;11.386;2023-02-19T07:19:17;95788.31;;;10.69;77.55
13414;BME280;6778;48.136;11.386;2023-02-19T07:21:47;95787.13;;;10.72;77.58
13414;BME280;6778;48.136;11.386;2023-02-19T07:24:20;95797.19;;;10.68;77.81
13414;BME280;6778;48.136;11.386;2023-02-19T07:26:49;95792.75;;;10.75;77.75
13414;BME280;6778;48.136;11.386;2023-02-19T07:29:20;95800.81;;;10.80;77.79
13414;BME280;6778;48.136;11.386;2023-02-19T07:31:50;95801.84;;;10.73;78.04
13414;BME280;6778;48.136;11.386;2023-02-19T07:34:20;95801.56;;;10.94;77.76
13414;BME280;6778;48.136;11.386;2023-02-19T07:36:51;95808.53;;;11.27;76.36
13414;BME280;6778;48.136;11.386;2023-02-19T07:39:23;95812.81;;;11.08;76.67
13414;BME280;6778;48.136;11.386;2023-02-19T07:41:54;95820.50;;;10.96;77.68
13414;BME280;6778;48.136;11.386;2023-02-19T07:44:26;95818.09;;;11.01;77.17
13414;BME280;6778;48.136;11.386;2023-02-19T07:46:57;95824.16;;;10.95;77.30
13414;BME280;6778;48.136;11.386;2023-02-19T07:49:27;95826.41;;;10.85;78.25
13414;BME280;6778;48.136;11.386;2023-02-19T07:51:57;95839.50;;;10.85;78.41
13414;BME280;6778;48.136;11.386;2023-02-19T07:54:30;95832.81;;;10.89;78.69
13414;BME280;6778;48.136;11.386;2023-02-19T07:57:00;95837.50;;;10.80;79.16
13414;BME280;6778;48.136;11.386;2023-02-19T07:59:30;95842.13;;;10.85;79.20
13414;BME280;6778;48.136;11.386;2023-02-19T08:02:00;95842.38;;;10.63;79.52
13414;BME280;6778;48.136;11.386;2023-02-19T08:04:42;95846.59;;;10.58;80.09
13414;BME280;6778;48.136;11.386;2023-02-19T08:07:13;95845.38;;;10.54;80.55
13414;BME280;6778;48.136;11.386;2023-02-19T08:09:45;95859.69;;;10.51;80.56
13414;BME280;6778;48.136;11.386;2023-02-19T08:12:36;95856.66;;;10.48;80.65
13414;BME280;6778;48.136;11.386;2023-02-19T08:15:18;95857.06;;;10.58;80.51
13414;BME280;6778;48.136;11.386;2023-02-19T08:17:49;95848.00;;;10.60;80.11
13414;BME280;6778;48.136;11.386;2023-02-19T08:20:18;95859.88;;;10.50;80.38
13414;BME280;6778;48.136;11.386;2023-02-19T08:22:48;95862.31;;;10.58;80.18
13414;BME280;6778;48.136;11.386;2023-02-19T08:25:21;95857.47;;;10.61;79.88
13414;BME280;6778;48.136;11.386;2023-02-19T08:27:52;95870.56;;;10.68;79.39
13414;BME280;6778;48.136;11.386;2023-02-19T08:30:22;95883.06;;;10.66;79.42
13414;BME280;6778;48.136;11.386;2023-02-19T08:32:52;95878.03;;;10.64;80.19
13414;BME280;6778;48.136;11.386;2023-02-19T08:35:22;95880.03;;;10.62;79.77
13414;BME280;6778;48.136;11.386;2023-02-19T08:37:54;95887.88;;;10.62;79.96
13414;BME280;6778;48.136;11.386;2023-02-19T08:40:28;95883.66;;;10.61;79.76
13414;BME280;6778;48.136;11.386;2023-02-19T08:43:01;95888.69;;;10.56;80.09
13414;BME280;6778;48.136;11.386;2023-02-19T08:45:31;95885.91;;;10.58;80.39
13414;BME280;6778;48.136;11.386;2023-02-19T08:48:02;95892.16;;;10.44;81.28
13414;BME280;6778;48.136;11.386;2023-02-19T08:50:33;95890.50;;;10.56;80.49
13414;BME280;6778;48.136;11.386;2023-02-19T08:53:05;95889.53;;;10.57;80.52
13414;BME280;6778;48.136;11.386;2023-02-19T08:55:38;95895.56;;;10.57;81.10
13414;BME280;6778;48.136;11.386;2023-02-19T08:58:09;95895.97;;;10.61;80.77
13414;BME280;6778;48.136;11.386;2023-02-19T09:00:39;95904.03;;;10.59;81.03
13414;BME280;6778;48.136;11.386;2023-02-19T09:03:09;95906.44;;;10.61;81.22
13414;BME280;6778;48.136;11.386;2023-02-19T09:05:40;95904.22;;;10.64;80.97
13414;BME280;6778;48.136;11.386;2023-02-19T09:08:12;95913.50;;;10.67;80.96
13414;BME280;6778;48.136;11.386;2023-02-19T09:10:49;95912.47;;;10.61;80.80
13414;BME280;6778;48.136;11.386;2023-02-19T09:13:25;95908.47;;;10.72;80.35
13414;BME280;6778;48.136;11.386;2023-02-19T09:15:55;95915.91;;;10.75;80.24
13414;BME280;6778;48.136;11.386;2023-02-19T09:18:26;95925.56;;;10.75;79.99
13414;BME280;6778;48.136;11.386;2023-02-19T09:20:58;95927.00;;;10.71;80.25
13414;BME280;6778;48.136;11.386;2023-02-19T09:23:32;95926.78;;;10.99;79.97
13414;BME280;6778;48.136;11.386;2023-02-19T09:26:05;95925.75;;;11.19;78.34
13414;BME280;6778;48.136;11.386;2023-02-19T09:28:36;95919.13;;;11.68;74.62
13414;BME280;6778;48.136;11.386;2023-02-19T09:31:10;95918.69;;;14.26;65.42
13414;BME280;6778;48.136;11.386;2023-02-19T09:33:41;95923.75;;;13.24;66.65
13414;BME280;6778;48.136;11.386;2023-02-19T09:36:14;95927.31;;;12.62;68.61
13414;BME280;6778;48.136;11.386;2023-02-19T09:38:45;95932.50;;;12.43;69.07
13414;BME280;6778;48.136;11.386;2023-02-19T09:41:25;95933.19;;;12.89;68.04
13414;BME280;6778;48.136;11.386;2023-02-19T09:43:59;95943.41;;;12.97;66.81
13414;BME280;6778;48.136;11.386;2023-02-19T09:46:34;95950.84;;;12.12;66.82
13414;BME280;6778;48.136;11.386;2023-02-19T09:49:13;95951.59;;;11.87;67.99
13414;BME280;6778;48.136;11.386;2023-02-19T09:51:49;95945.06;;;11.45;68.21
13414;BME280;6778;48.136;11.386;2023-02-19T09:54:22;95961.63;;;11.39;68.54
13414;BME280;6778;48.136;11.386;2023-02-19T09:56:59;95945.22;;;11.50;68.77
13414;BME280;6778;48.136;11.386;2023-02-19T09:59:38;95954.56;;;11.33;69.41
13414;BME280;6778;48.136;11.386;2023-02-19T10:02:13;95951.50;;;11.36;67.77
13414;BME280;6778;48.136;11.386;2023-02-19T10:04:46;95944.63;;;11.55;65.66
13414;BME280;6778;48.136;11.386;2023-02-19T10:07:19;95943.97;;;12.80;60.89
13414;BME280;6778;48.136;11.386;2023-02-19T10:09:54;95944.78;;;13.49;56.30
13414;BME280;6778;48.136;11.386;2023-02-19T10:12:30;95944.31;;;13.71;54.98
13414;BME280;6778;48.136;11.386;2023-02-19T10:15:10;95957.69;;;13.32;55.26
13414;BME280;6778;48.136;11.386;2023-02-19T10:17:40;95964.34;;;13.53;54.62
13414;BME280;6778;48.136;11.386;2023-02-19T10:20:13;95954.91;;;16.42;47.84
13414;BME280;6778;48.136;11.386;2023-02-19T10:22:45;95950.66;;;17.97;44.34
13414;BME280;6778;48.136;11.386;2023-02-19T10:25:16;95960.91;;;18.86;41.85
13414;BME280;6778;48.136;11.386;2023-02-19T10:27:49;95944.69;;;20.25;38.00
13414;BME280;6778;48.136;11.386;2023-02-19T10:30:22;95948.56;;;20.69;37.81
13414;BME280;6778;48.136;11.386;2023-02-19T10:33:02;95954.16;;;21.19;36.89
13414;BME280;6778;48.136;11.386;2023-02-19T10:35:36;95954.34;;;21.89;35.62
13414;BME280;6778;48.136;11.386;2023-02-19T10:38:06;95953.84;;;21.71;35.18
13414;BME280;6778;48.136;11.386;2023-02-19T10:40:43;95949.63;;;21.50;36.03
13414;BME280;6778;48.136;11.386;2023-02-19T10:43:24;95944.31;;;21.24;35.76
13414;BME280;6778;48.136;11.386;2023-02-19T10:46:03;95951.47;;;22.40;34.28
13414;BME280;6778;48.136;11.386;2023-02-19T10:48:38;95949.25;;;22.57;33.82
13414;BME280;6778;48.136;11.386;2023-02-19T10:51:12;95941.56;;;19.70;37.34
13414;BME280;6778;48.136;11.386;2023-02-19T10:53:50;95940.56;;;21.25;34.78
13414;BME280;6778;48.136;11.386;2023-02-19T10:56:32;95942.00;;;18.55;39.08
13414;BME280;6778;48.136;11.386;2023-02-19T10:59:23;95939.06;;;17.42;41.08
13414;BME280;6778;48.136;11.386;2023-02-19T11:01:55;95941.03;;;16.34;42.68
13414;BME280;6778;48.136;11.386;2023-02-19T11:04:27;95939.63;;;16.03;44.10
13414;BME280;6778;48.136;11.386;2023-02-19T11:07:07;95934.78;;;15.48;46.30
13414;BME280;6778;48.136;11.386;2023-02-19T11:09:40;95933.69;;;16.53;43.93
13414;BME280;6778;48.136;11.386;2023-02-19T11:12:13;95927.56;;;15.44;45.49
13414;BME280;6778;48.136;11.386;2023-02-19T11:14:55;95923.78;;;14.93;46.97
13414;BME280;6778;48.136;11.386;2023-02-19T11:17:27;95929.72;;;14.77;47.54
13414;BME280;6778;48.136;11.386;2023-02-19T11:20:03;95928.47;;;14.67;48.02
13414;BME280;6778;48.136;11.386;2023-02-19T11:22:37;95930.56;;;15.00;47.67
13414;BME280;6778;48.136;11.386;2023-02-19T11:25:18;95930.31;;;15.72;46.47
13414;BME280;6778;48.136;11.386;2023-02-19T11:30:36;95938.69;;;16.09;45.61
13414;BME280;6778;48.136;11.386;2023-02-19T11:33:27;95923.72;;;15.87;46.63
13414;BME280;6778;48.136;11.386;2023-02-19T11:38:44;95921.84;;;15.23;47.99
13414;BME280;6778;48.136;11.386;2023-02-19T11:41:25;95938.47;;;14.89;49.57
13414;BME280;6778;48.136;11.386;2023-02-19T11:44:11;95954.31;;;14.47;51.28
13414;BME280;6778;48.136;11.386;2023-02-19T11:46:54;95952.94;;;13.96;53.04
13414;BME280;6778;48.136;11.386;2023-02-19T11:49:39;95942.94;;;13.50;53.08
13414;BME280;6778;48.136;11.386;2023-02-19T11:52:27;95942.34;;;13.66;52.17
13414;BME280;6778;48.136;11.386;2023-02-19T11:55:11;95952.06;;;13.47;52.01
13414;BME280;6778;48.136;11.386;2023-02-19T11:57:46;95948.91;;;13.38;52.05
13414;BME280;6778;48.136;11.386;2023-02-19T12:00:23;95947.06;;;13.21;51.90
13414;BME280;6778;48.136;11.386;2023-02-19T12:03:16;95938.38;;;13.20;51.52
13414;BME280;6778;48.136;11.386;2023-02-19T12:06:05;95942.50;;;13.09;51.75
13414;BME280;6778;48.136;11.386;2023-02-19T12:09:02;95943.47;;;13.15;51.87
13414;BME280;6778;48.136;11.386;2023-02-19T12:11:53;95937.59;;;13.13;51.86
13414;BME280;6778;48.136;11.386;2023-02-19T12:15:02;95943.25;;;12.92;51.45
13414;BME280;6778;48.136;11.386;2023-02-19T12:17:52;95953.31;;;13.01;51.86
13414;BME280;6778;48.136;11.386;2023-02-19T12:20:34;95943.25;;;12.92;52.19
13414;BME280;6778;48.136;11.386;2023-02-19T12:26:18;95948.03;;;13.01;52.62
13414;BME280;6778;48.136;11.386;2023-02-19T12:29:15;95941.00;;;12.95;52.92
13414;BME280;6778;48.136;11.386;2023-02-19T12:35:24;95963.09;;;13.12;53.69
13414;BME280;6778;48.136;11.386;2023-02-19T12:38:11;95986.69;;;13.01;53.93
13414;BME280;6778;48.136;11.386;2023-02-19T12:40:56;95985.56;;;12.58;57.05
13414;BME280;6778;48.136;11.386;2023-02-19T12:43:32;95993.56;;;12.00;58.76
13414;BME280;6778;48.136;11.386;2023-02-19T12:46:10;95992.16;;;11.91;59.13
13414;BME280;6778;48.136;11.386;2023-02-19T12:48:47;95991.16;;;11.92;58.52
13414;BME280;6778;48.136;11.386;2023-02-19T12:51:26;95997.63;;;11.90;58.39
13414;BME280;6778;48.136;11.386;2023-02-19T12:54:03;96005.13;;;11.86;58.35
13414;BME280;6778;48.136;11.386;2023-02-19T12:56:42;96002.66;;;11.78;58.02
13414;BME280;6778;48.136;11.386;2023-02-19T12:59:20;96000.47;;;11.88;57.01
13414;BME280;6778;48.136;11.386;2023-02-19T13:01:58;96006.06;;;11.98;55.30
13414;BME280;6778;48.136;11.386;2023-02-19T13:04:41;95994.03;;;11.58;55.37
13414;BME280;6778;48.136;11.386;2023-02-19T13:07:19;95999.44;;;11.89;54.57
13414;BME280;6778;48.136;11.386;2023-02-19T13:10:03;95986.91;;;11.91;54.70
13414;BME280;6778;48.136;11.386;2023-02-19T13:12:39;95997.06;;;11.61;56.80
13414;BME280;6778;48.136;11.386;2023-02-19T13:15:16;96003.81;;;12.09;55.51
13414;BME280;6778;48.136;11.386;2023-02-19T13:17:51;95997.16;;;12.13;54.61
13414;BME280;6778;48.136;11.386;2023-02-19T13:20:25;96005.06;;;11.99;54.91
13414;BME280;6778;48.136;11.386;2023-02-19T13:23:01;96010.19;;;11.61;56.37
13414;BME280;6778;48.136;11.386;2023-02-19T13:26:12;96009.19;;;11.56;55.55
13414;BME280;6778;48.136;11.386;2023-02-19T13:29:03;96003.75;;;11.51;55.94
13414;BME280;6778;48.136;11.386;2023-02-19T13:31:52;95998.69;;;11.56;55.90
13414;BME280;6778;48.136;11.386;2023-02-19T13:34:43;95988.19;;;11.56;56.91
13414;BME280;6778;48.136;11.386;2023-02-19T13:37:20;95990.25;;;11.40;58.16
13414;BME280;6778;48.136;11.386;2023-02-19T13:39:53;95980.28;;;11.75;57.55
13414;BME280;6778;48.136;11.386;2023-02-19T13:42:31;95993.03;;;11.72;57.70
13414;BME280;6778;48.136;11.386;2023-02-19T13:45:04;95988.22;;;11.42;57.91
13414;BME280;6778;48.136;11.386;2023-02-19T13:47:46;95989.25;;;11.28;59.66
13414;BME280;6778;48.136;11.386;2023-02-19T13:50:22;95997.75;;;11.10;60.67
13414;BME280;6778;48.136;11.386;2023-02-19T13:52:52;96007.41;;;11.03;59.29
13414;BME280;6778;48.136;11.386;2023-02-19T13:55:50;96017.31;;;10.94;60.18